Погода Планалтинана 2 недели

Гояс, Бразилия

18 - 31 июля
  • 18июля
    Сегодня
    +14°
    +27°
    Небольшая облачность
    ВремяПогодаТемператураВлажностьДавлениеВетер, м/сВероятность осадков
    00:00Ясно и безоблачно+17°C52 %676 мм3.1 м/с5 %
    03:00Облачно с прояснениями+13°C55 %675 мм2.9 м/с5 %
    06:00Небольшая облачность+13°C54 %675 мм3.2 м/с5 %
    09:00Практически безоблачно+20°C42 %678 мм3.6 м/с5 %
    12:00Небольшая облачность+25°C30 %678 мм3.0 м/с5 %
    15:00Небольшая облачность+26°C30 %677 мм2.6 м/с5 %
    18:00Практически безоблачно+25°C32 %677 мм2.9 м/с5 %
    21:00Ясно и безоблачно+21°C42 %677 мм3.7 м/с5 %
  • 19июля
    Пятница
    +14°
    +27°
    Ясно и безоблачно
    ВремяПогодаТемператураВлажностьДавлениеВетер, м/сВероятность осадков
    00:00Ясно и безоблачно+17°C48 %676 мм3.1 м/с5 %
    03:00Ясно и безоблачно+15°C51 %675 мм3.2 м/с5 %
    06:00Ясно и безоблачно+15°C53 %676 мм3.1 м/с5 %
    09:00Ясно и безоблачно+20°C43 %679 мм4.0 м/с5 %
    12:00Ясно и безоблачно+25°C33 %679 мм4.5 м/с5 %
    15:00Ясно и безоблачно+27°C30 %678 мм3.3 м/с5 %
    18:00Ясно и безоблачно+24°C33 %678 мм2.5 м/с5 %
    21:00Ясно и безоблачно+21°C42 %678 мм3.5 м/с5 %
  • 20июля
    Суббота
    +14°
    +27°
    Ясно и безоблачно
    ВремяПогодаТемператураВлажностьДавлениеВетер, м/сВероятность осадков
    00:00Ясно и безоблачно+17°C47 %677 мм3.0 м/с5 %
    03:00Ясно и безоблачно+14°C51 %675 мм3.1 м/с5 %
    06:00Ясно и безоблачно+15°C53 %676 мм3.9 м/с5 %
    09:00Ясно и безоблачно+19°C45 %678 мм4.6 м/с5 %
    12:00Ясно и безоблачно+25°C34 %679 мм4.3 м/с5 %
    15:00Ясно и безоблачно+26°C30 %677 мм3.5 м/с5 %
    18:00Ясно и безоблачно+24°C35 %677 мм2.6 м/с5 %
    21:00Ясно и безоблачно+20°C45 %677 мм3.6 м/с5 %
  • 21июля
    Воскресенье
    +14°
    +26°
    Ясно и безоблачно
    ВремяПогодаТемператураВлажностьДавлениеВетер, м/сВероятность осадков
    00:00Ясно и безоблачно+17°C50 %676 мм3.9 м/с5 %
    03:00Ясно и безоблачно+15°C55 %674 мм3.5 м/с5 %
    06:00Ясно и безоблачно+14°C62 %675 мм3.0 м/с5 %
    09:00Ясно и безоблачно+19°C50 %678 мм4.7 м/с5 %
    12:00Ясно и безоблачно+24°C40 %678 мм4.3 м/с5 %
    15:00Ясно и безоблачно+26°C35 %676 мм3.5 м/с5 %
    18:00Ясно и безоблачно+24°C45 %676 мм2.3 м/с5 %
    21:00Ясно и безоблачно+20°C46 %677 мм3.4 м/с5 %
  • 22июля
    Понедельник
    +14°
    +26°
    Ясно и безоблачно
    ВремяПогодаТемператураВлажностьДавлениеВетер, м/сВероятность осадков
    00:00Ясно и безоблачно+17°C53 %676 мм3.6 м/с5 %
    03:00Ясно и безоблачно+14°C49 %675 мм3.1 м/с5 %
    06:00Ясно и безоблачно+14°C50 %676 мм3.5 м/с5 %
    09:00Ясно и безоблачно+19°C51 %679 мм4.6 м/с5 %
    12:00Ясно и безоблачно+24°C37 %679 мм3.9 м/с5 %
    15:00Ясно и безоблачно+26°C32 %677 мм3.2 м/с5 %
    18:00Ясно и безоблачно+24°C39 %677 мм2.5 м/с5 %
    21:00Ясно и безоблачно+20°C47 %677 мм3.9 м/с5 %
Мы используем cookies
Соглашаюсь